createdAt,value
2018-07-03T00:00:35.406Z,8.60
2018-07-03T00:03:02.936Z,12.37
2018-07-03T00:05:31.482Z,7.63
2018-07-03T00:07:59.006Z,8.97
2018-07-03T00:10:26.573Z,7.80
2018-07-03T00:12:54.105Z,7.97
2018-07-03T00:15:21.640Z,10.20
2018-07-03T00:17:49.198Z,6.73
2018-07-03T00:20:16.731Z,8.40
2018-07-03T00:22:44.289Z,7.60
2018-07-03T00:25:12.589Z,10.30
2018-07-03T00:27:40.142Z,8.60
2018-07-03T00:30:08.668Z,9.17
2018-07-03T00:32:36.198Z,9.73
2018-07-03T00:35:03.761Z,17.30
2018-07-03T00:37:31.320Z,11.70
2018-07-03T00:39:58.853Z,7.00
2018-07-03T00:42:26.413Z,9.27
2018-07-03T00:44:53.946Z,8.60
2018-07-03T00:47:21.506Z,9.23
2018-07-03T00:49:49.057Z,7.70
2018-07-03T00:52:17.354Z,7.07
2018-07-03T00:54:44.923Z,13.93
2018-07-03T00:57:12.485Z,6.03
2018-07-03T00:59:40.042Z,8.87
2018-07-03T01:02:07.578Z,6.50
2018-07-03T01:04:35.116Z,10.10
2018-07-03T01:07:02.677Z,10.30
2018-07-03T01:09:30.205Z,6.43
2018-07-03T01:11:57.778Z,9.03
2018-07-03T01:14:25.328Z,7.73
2018-07-03T01:16:53.826Z,7.53
2018-07-03T01:19:22.154Z,12.87
2018-07-03T01:21:49.685Z,7.10
2018-07-03T01:24:17.450Z,11.67
2018-07-03T01:26:45.003Z,6.47
2018-07-03T01:29:12.565Z,11.77
2018-07-03T01:31:40.101Z,12.70
2018-07-03T01:34:08.423Z,10.27
2018-07-03T01:36:36.952Z,7.73
2018-07-03T01:39:04.513Z,7.73
2018-07-03T01:41:32.048Z,7.23
2018-07-03T01:43:59.613Z,6.33
2018-07-03T01:46:29.130Z,15.87
2018-07-03T01:48:59.409Z,10.93
2018-07-03T01:51:26.957Z,6.63
2018-07-03T01:53:54.512Z,12.67
2018-07-03T01:56:22.069Z,7.77
2018-07-03T01:58:51.560Z,11.10
2018-07-03T02:01:19.090Z,7.37
2018-07-03T02:03:48.607Z,7.90
2018-07-03T02:06:16.160Z,15.20
2018-07-03T02:08:43.746Z,10.27
2018-07-03T02:11:11.284Z,11.30
2018-07-03T02:13:38.837Z,7.93
2018-07-03T02:16:06.392Z,9.53
2018-07-03T02:18:33.944Z,12.63
2018-07-03T02:21:01.695Z,14.73
2018-07-03T02:23:29.220Z,8.20
2018-07-03T02:25:56.782Z,6.73
2018-07-03T02:28:24.309Z,6.90
2018-07-03T02:30:51.873Z,11.10
2018-07-03T02:33:20.367Z,11.80
2018-07-03T02:35:47.934Z,7.90
2018-07-03T02:38:16.429Z,9.60
2018-07-03T02:40:44.730Z,7.03
2018-07-03T02:43:12.301Z,16.13
2018-07-03T02:45:39.870Z,6.90
2018-07-03T02:48:07.429Z,16.40
2018-07-03T02:50:34.969Z,17.37
2018-07-03T02:53:02.558Z,7.80
2018-07-03T02:55:30.122Z,14.23
2018-07-03T02:57:57.661Z,11.93
2018-07-03T03:00:25.222Z,7.20
2018-07-03T03:02:52.761Z,9.30
2018-07-03T03:05:20.322Z,7.07
2018-07-03T03:07:48.833Z,10.80
2018-07-03T03:10:17.138Z,12.60
2018-07-03T03:12:44.709Z,10.23
2018-07-03T03:15:12.277Z,8.87
2018-07-03T03:17:39.842Z,14.30
2018-07-03T03:20:07.664Z,9.65
2018-07-03T03:22:35.229Z,8.80
2018-07-03T03:25:02.805Z,9.33
2018-07-03T03:27:31.301Z,6.97
2018-07-03T03:29:58.865Z,11.17
2018-07-03T03:32:26.402Z,9.10
2018-07-03T03:34:53.966Z,13.13
2018-07-03T03:37:21.510Z,8.57
2018-07-03T03:39:49.078Z,16.40
2018-07-03T03:42:16.639Z,9.53
2018-07-03T03:44:44.206Z,9.57
2018-07-03T03:47:11.745Z,7.30
2018-07-03T03:49:39.313Z,12.60
2018-07-03T03:52:06.850Z,11.87
2018-07-03T03:54:34.412Z,11.17
2018-07-03T03:57:01.950Z,7.37
2018-07-03T03:59:29.510Z,13.07
2018-07-03T04:01:57.045Z,17.07
2018-07-03T04:04:24.580Z,8.67
2018-07-03T04:06:52.154Z,18.60
2018-07-03T04:09:20.458Z,16.53
2018-07-03T04:11:48.952Z,13.27
2018-07-03T04:14:16.609Z,9.17
2018-07-03T04:16:44.149Z,12.17
2018-07-03T04:19:11.701Z,12.60
2018-07-03T04:21:39.237Z,17.87
2018-07-03T04:24:08.740Z,10.63
2018-07-03T04:26:36.280Z,10.80
2018-07-03T04:29:03.854Z,11.60
2018-07-03T04:31:33.116Z,11.27
2018-07-03T04:34:00.694Z,9.70
2018-07-03T04:36:28.420Z,13.20
2018-07-03T04:38:55.969Z,10.67
2018-07-03T04:41:23.548Z,8.47
2018-07-03T04:43:51.110Z,12.03
2018-07-03T04:46:18.642Z,16.00
2018-07-03T04:48:46.202Z,13.70
2018-07-03T04:51:13.736Z,10.63
2018-07-03T04:53:41.505Z,10.90
2018-07-03T04:56:09.036Z,7.00
2018-07-03T04:58:36.588Z,7.63
2018-07-03T05:01:04.137Z,7.80
2018-07-03T05:03:31.669Z,14.63
2018-07-03T05:05:59.232Z,13.73
2018-07-03T05:08:26.766Z,17.83
2018-07-03T05:10:54.329Z,17.50
2018-07-03T05:13:21.975Z,14.43
2018-07-03T05:15:49.505Z,9.63
2018-07-03T05:18:17.067Z,14.13
2018-07-03T05:20:44.597Z,8.03
2018-07-03T05:23:12.158Z,10.90
2018-07-03T05:25:40.461Z,12.63
2018-07-03T05:28:10.012Z,13.60
2018-07-03T05:30:37.545Z,11.50
2018-07-03T05:33:05.107Z,20.77
2018-07-03T05:35:32.669Z,15.30
2018-07-03T05:38:00.224Z,11.73
2018-07-03T05:40:27.769Z,14.37
2018-07-03T05:42:56.297Z,10.63
2018-07-03T05:45:24.642Z,12.53
2018-07-03T05:47:53.134Z,14.60
2018-07-03T05:50:20.693Z,13.57
2018-07-03T05:52:48.253Z,8.47
2018-07-03T05:55:15.790Z,9.57
2018-07-03T05:57:43.356Z,11.13
2018-07-03T06:00:10.928Z,20.03
2018-07-03T06:02:39.263Z,7.80
2018-07-03T06:05:07.754Z,14.83
2018-07-03T06:07:35.338Z,10.43
2018-07-03T06:10:03.866Z,15.83
2018-07-03T06:12:31.447Z,8.60
2018-07-03T06:14:59.029Z,26.80
2018-07-03T06:17:26.576Z,15.63
2018-07-03T06:19:54.151Z,18.43
2018-07-03T06:22:21.690Z,16.47
2018-07-03T06:24:49.252Z,21.93
2018-07-03T06:27:16.790Z,12.90
2018-07-03T06:29:44.370Z,21.97
2018-07-03T06:32:11.921Z,19.43
2018-07-03T06:34:39.453Z,12.67
2018-07-03T06:37:07.232Z,34.70
2018-07-03T06:39:34.629Z,24.63
2018-07-03T06:42:02.954Z,18.70
2018-07-03T06:44:30.507Z,12.30
2018-07-03T06:46:58.081Z,15.63
2018-07-03T06:49:25.652Z,18.07
2018-07-03T06:51:53.194Z,20.93
2018-07-03T06:54:20.754Z,13.70
2018-07-03T06:56:48.336Z,16.70
2018-07-03T06:59:17.598Z,16.47
2018-07-03T07:01:45.196Z,25.20
2018-07-03T07:04:13.537Z,9.73
2018-07-03T07:06:42.047Z,12.67
2018-07-03T07:09:09.726Z,21.23
2018-07-03T07:11:37.293Z,17.87
2018-07-03T07:14:05.839Z,23.77
2018-07-03T07:16:33.387Z,16.73
2018-07-03T07:19:02.918Z,14.60
2018-07-03T07:21:30.472Z,21.80
2018-07-03T07:23:58.044Z,19.20
2018-07-03T07:26:25.579Z,11.93
2018-07-03T07:28:53.877Z,15.83
2018-07-03T07:31:23.395Z,22.07
2018-07-03T07:33:50.925Z,16.33
2018-07-03T07:36:19.281Z,18.93
2018-07-03T07:38:47.593Z,18.50
2018-07-03T07:41:15.133Z,9.27
2018-07-03T07:43:43.464Z,17.37
2018-07-03T07:46:11.021Z,8.50
2018-07-03T07:48:38.586Z,15.07
2018-07-03T07:51:06.133Z,11.83
2018-07-03T07:53:35.637Z,10.37
2018-07-03T07:56:03.174Z,15.73
2018-07-03T07:58:30.742Z,10.70
2018-07-03T08:00:58.278Z,7.13
2018-07-03T08:03:25.850Z,15.53
2018-07-03T08:05:53.391Z,12.10
2018-07-03T08:08:21.022Z,15.00
2018-07-03T08:10:48.577Z,8.73
2018-07-03T08:13:16.930Z,14.30
2018-07-03T08:15:46.473Z,17.47
2018-07-03T08:18:14.006Z,15.57
2018-07-03T08:20:42.369Z,12.93
2018-07-03T08:23:09.902Z,11.07
2018-07-03T08:25:37.472Z,14.43
2018-07-03T08:28:05.802Z,15.83
2018-07-03T08:30:33.339Z,12.13
2018-07-03T08:33:00.906Z,8.07
2018-07-03T08:35:28.448Z,12.30
2018-07-03T08:37:56.842Z,20.00
2018-07-03T08:40:25.285Z,23.37
2018-07-03T08:42:52.918Z,12.40
2018-07-03T08:45:22.144Z,14.27
2018-07-03T08:47:49.677Z,11.07
2018-07-03T08:50:17.238Z,7.67
2018-07-03T08:52:45.533Z,17.17
2018-07-03T08:55:13.144Z,21.47
2018-07-03T08:57:40.681Z,24.90
2018-07-03T09:00:08.221Z,24.73
2018-07-03T09:02:36.549Z,20.47
2018-07-03T09:05:04.106Z,19.60
2018-07-03T09:07:37.565Z,16.77
2018-07-03T09:10:07.109Z,26.57
2018-07-03T09:12:34.676Z,18.47
2018-07-03T09:15:02.214Z,15.53
2018-07-03T09:17:29.789Z,14.80
2018-07-03T09:19:57.322Z,17.83
2018-07-03T09:22:24.893Z,33.23
2018-07-03T09:24:52.436Z,20.57
2018-07-03T09:27:20.043Z,20.17
2018-07-03T09:29:47.582Z,13.63
2018-07-03T09:32:15.914Z,14.17
2018-07-03T09:34:43.479Z,22.23
2018-07-03T09:37:11.009Z,14.93
2018-07-03T09:39:38.570Z,18.07
2018-07-03T09:42:06.150Z,16.87
2018-07-03T09:44:33.710Z,27.77
2018-07-03T09:47:01.241Z,18.10
2018-07-03T09:49:28.804Z,20.23
2018-07-03T09:51:56.364Z,15.87
2018-07-03T09:54:25.873Z,14.37
2018-07-03T09:56:53.408Z,16.50
2018-07-03T09:59:20.965Z,17.90
2018-07-03T10:01:48.545Z,18.97
2018-07-03T10:04:16.078Z,18.03
2018-07-03T10:06:44.409Z,18.10
2018-07-03T10:09:11.954Z,18.87
2018-07-03T10:11:39.521Z,14.17
2018-07-03T10:14:08.020Z,14.10
2018-07-03T10:16:35.577Z,22.03
2018-07-03T10:19:03.117Z,17.53
2018-07-03T10:21:30.684Z,18.73
2018-07-03T10:23:58.253Z,19.30
2018-07-03T10:26:25.790Z,26.60
2018-07-03T10:28:53.350Z,13.70
2018-07-03T10:31:20.926Z,20.57
2018-07-03T10:33:48.489Z,14.23
2018-07-03T10:36:16.029Z,13.17
2018-07-03T10:38:43.594Z,12.37
2018-07-03T10:41:12.151Z,21.50
2018-07-03T10:43:39.707Z,16.37
2018-07-03T10:46:07.241Z,11.43
2018-07-03T10:48:34.801Z,15.03
2018-07-03T10:51:02.373Z,13.83
2018-07-03T10:53:29.929Z,12.27
2018-07-03T10:55:57.475Z,16.47
2018-07-03T10:58:25.281Z,11.90
2018-07-03T11:00:52.850Z,11.67
2018-07-03T11:03:20.414Z,12.17
2018-07-03T11:05:48.922Z,20.40
2018-07-03T11:08:16.455Z,10.97
2018-07-03T11:10:44.021Z,18.90
2018-07-03T11:13:11.557Z,19.60
2018-07-03T11:15:39.894Z,11.40
2018-07-03T11:18:07.424Z,15.13
2018-07-03T11:20:34.987Z,17.30
2018-07-03T11:23:02.521Z,16.47
2018-07-03T11:25:32.069Z,16.77
2018-07-03T11:27:59.597Z,17.10
2018-07-03T11:30:27.162Z,16.20
2018-07-03T11:32:54.722Z,19.73
2018-07-03T11:35:22.257Z,16.63
2018-07-03T11:37:49.890Z,13.53
2018-07-03T11:40:17.410Z,9.83
2018-07-03T11:42:44.983Z,9.20
2018-07-03T11:45:13.736Z,13.53
2018-07-03T11:47:41.289Z,15.83
2018-07-03T11:50:08.853Z,12.33
2018-07-03T11:52:36.381Z,9.57
2018-07-03T11:55:03.941Z,11.43
2018-07-03T11:57:31.473Z,12.73
2018-07-03T11:59:59.049Z,7.83
2018-07-03T12:02:26.596Z,11.37
2018-07-03T12:04:54.153Z,6.90
2018-07-03T12:07:21.694Z,10.57
2018-07-03T12:09:50.188Z,7.53
2018-07-03T12:12:17.754Z,10.17
2018-07-03T12:14:45.289Z,10.53
2018-07-03T12:17:12.863Z,9.43
2018-07-03T12:19:41.232Z,12.87
2018-07-03T12:22:09.721Z,18.47
2018-07-03T12:24:37.281Z,13.00
2018-07-03T12:27:05.606Z,15.57
2018-07-03T12:29:33.171Z,11.03
2018-07-03T12:32:00.705Z,10.63
2018-07-03T12:34:28.268Z,12.43
2018-07-03T12:36:56.761Z,11.17
2018-07-03T12:39:24.322Z,11.27
2018-07-03T12:41:51.858Z,13.67
2018-07-03T12:44:19.417Z,7.20
2018-07-03T12:46:46.958Z,9.50
2018-07-03T12:49:14.492Z,9.07
2018-07-03T12:51:42.068Z,11.50
2018-07-03T12:54:09.614Z,7.93
2018-07-03T12:56:37.169Z,8.60
2018-07-03T12:59:04.741Z,10.53
2018-07-03T13:01:32.286Z,9.07
2018-07-03T13:03:59.845Z,9.37
2018-07-03T13:06:28.361Z,7.10
2018-07-03T13:08:55.919Z,9.70
2018-07-03T13:11:24.409Z,4.60
2018-07-03T13:13:52.222Z,8.57
2018-07-03T13:16:19.754Z,4.10
2018-07-03T13:18:47.316Z,11.70
2018-07-03T13:21:14.883Z,9.20
2018-07-03T13:23:42.441Z,9.97
2018-07-03T13:26:10.001Z,12.90
2018-07-03T13:28:37.567Z,7.70
2018-07-03T13:31:05.109Z,10.40
2018-07-03T13:33:33.438Z,5.93
2018-07-03T13:36:00.992Z,6.83
2018-07-03T13:38:28.555Z,4.53
2018-07-03T13:40:56.089Z,9.33
2018-07-03T13:43:25.617Z,7.13
2018-07-03T13:45:54.132Z,6.03
2018-07-03T13:48:22.556Z,10.00
2018-07-03T13:50:50.013Z,7.80
2018-07-03T13:53:17.572Z,6.90
2018-07-03T13:55:45.126Z,4.30
2018-07-03T13:58:12.675Z,10.53
2018-07-03T14:00:40.237Z,13.10
2018-07-03T14:03:07.769Z,6.13
2018-07-03T14:05:35.339Z,6.90
2018-07-03T14:08:02.906Z,6.73
2018-07-03T14:10:30.466Z,8.93
2018-07-03T14:12:58.021Z,9.10
2018-07-03T14:15:25.578Z,4.50
2018-07-03T14:17:53.561Z,5.50
2018-07-03T14:20:22.009Z,7.27
2018-07-03T14:22:49.570Z,8.10
2018-07-03T14:25:26.713Z,8.20
2018-07-03T14:27:55.166Z,8.53
2018-07-03T14:30:26.513Z,9.97
2018-07-03T14:32:54.094Z,5.30
2018-07-03T14:35:22.389Z,6.13
2018-07-03T14:37:49.949Z,13.40
2018-07-03T14:40:17.537Z,5.87
2018-07-03T14:42:45.089Z,5.10
2018-07-03T14:45:12.650Z,4.53
2018-07-03T14:47:40.217Z,7.07
2018-07-03T14:50:07.751Z,6.43
2018-07-03T14:52:35.281Z,5.47
2018-07-03T14:55:03.605Z,5.47
2018-07-03T14:57:31.553Z,4.57
2018-07-03T15:00:00.055Z,5.63
2018-07-03T15:02:27.614Z,7.33
2018-07-03T15:04:55.169Z,3.93
2018-07-03T15:07:22.714Z,7.20
2018-07-03T15:09:50.264Z,6.33
2018-07-03T15:12:18.237Z,5.10
2018-07-03T15:14:47.235Z,5.33
2018-07-03T15:17:14.771Z,6.70
2018-07-03T15:19:57.923Z,6.00
2018-07-03T15:22:25.477Z,3.80
2018-07-03T15:24:58.530Z,3.70
2018-07-03T15:27:26.110Z,3.93
2018-07-03T15:29:53.645Z,4.80
2018-07-03T15:32:21.205Z,4.80
2018-07-03T15:34:48.732Z,4.97
2018-07-03T15:37:17.052Z,3.90
2018-07-03T15:39:44.591Z,9.43
2018-07-03T15:42:12.160Z,6.07
2018-07-03T15:45:01.466Z,5.17
2018-07-03T15:47:29.009Z,5.27
2018-07-03T15:49:56.565Z,7.67
2018-07-03T15:52:24.123Z,4.57
2018-07-03T15:54:51.692Z,8.23
2018-07-03T15:57:19.234Z,3.87
2018-07-03T15:59:46.768Z,3.87
2018-07-03T16:02:16.311Z,5.13
2018-07-03T16:04:44.517Z,4.00
2018-07-03T16:07:12.082Z,3.30
2018-07-03T16:09:39.677Z,3.47
2018-07-03T16:12:07.189Z,4.00
2018-07-03T16:14:34.757Z,5.13
2018-07-03T16:17:02.428Z,8.70
2018-07-03T16:19:29.985Z,4.20
2018-07-03T16:21:57.521Z,5.00
2018-07-03T16:24:25.096Z,3.37
2018-07-03T16:26:52.678Z,7.93
2018-07-03T16:29:21.204Z,5.10
2018-07-03T16:31:48.741Z,4.80
2018-07-03T16:34:16.306Z,5.47
2018-07-03T16:36:43.859Z,4.70
2018-07-03T16:39:11.429Z,6.10
2018-07-03T16:41:38.985Z,6.13
2018-07-03T16:44:06.559Z,6.17
2018-07-03T16:46:34.121Z,5.23
2018-07-03T16:49:01.684Z,7.10
2018-07-03T16:51:29.217Z,9.87
2018-07-03T16:53:56.777Z,4.67
2018-07-03T16:56:24.336Z,6.10
2018-07-03T16:58:51.898Z,3.13
2018-07-03T17:01:19.453Z,3.63
2018-07-03T17:03:47.013Z,4.90
2018-07-03T17:06:14.550Z,5.30
2018-07-03T17:08:42.111Z,6.03
2018-07-03T17:11:10.413Z,7.73
2018-07-03T17:13:37.995Z,5.97
2018-07-03T17:16:05.538Z,6.63
2018-07-03T17:18:33.089Z,4.53
2018-07-03T17:21:00.626Z,6.00
2018-07-03T17:23:28.181Z,7.27
2018-07-03T17:25:55.741Z,4.10
2018-07-03T17:28:23.335Z,5.60
2018-07-03T17:30:50.870Z,7.37
2018-07-03T17:33:18.434Z,4.53
2018-07-03T17:35:45.998Z,4.97
2018-07-03T17:38:13.645Z,6.97
2018-07-03T17:40:53.883Z,6.00
2018-07-03T17:43:21.442Z,12.57
2018-07-03T17:45:50.765Z,7.57
2018-07-03T17:48:18.340Z,13.43
2018-07-03T17:50:45.881Z,8.60
2018-07-03T17:53:13.441Z,6.67
2018-07-03T17:55:40.986Z,16.23
2018-07-03T17:58:08.681Z,5.53
2018-07-03T18:00:36.245Z,7.93
2018-07-03T18:03:03.774Z,6.60
2018-07-03T18:05:31.331Z,7.90
2018-07-03T18:07:58.885Z,6.10
2018-07-03T18:10:26.522Z,6.07
2018-07-03T18:12:54.081Z,8.13
2018-07-03T18:15:21.699Z,8.67
2018-07-03T18:17:49.230Z,8.07
2018-07-03T18:20:16.766Z,9.43
2018-07-03T18:22:44.410Z,6.87
2018-07-03T18:25:12.921Z,13.57
2018-07-03T18:27:40.473Z,4.60
2018-07-03T18:30:08.008Z,5.17
2018-07-03T18:32:35.572Z,6.90
2018-07-03T18:35:03.100Z,8.73
2018-07-03T18:37:30.646Z,11.33
2018-07-03T18:39:58.212Z,11.43
2018-07-03T18:42:26.550Z,6.70
2018-07-03T18:44:54.107Z,4.83
2018-07-03T18:47:21.692Z,9.60
2018-07-03T18:49:49.217Z,4.80
2018-07-03T18:52:16.784Z,5.77
2018-07-03T18:54:44.344Z,8.73
2018-07-03T18:57:11.904Z,9.63
2018-07-03T18:59:39.445Z,5.83
2018-07-03T19:02:07.043Z,5.47
2018-07-03T19:04:34.589Z,5.80
2018-07-03T19:07:04.883Z,10.40
2018-07-03T19:09:32.457Z,8.03
2018-07-03T19:11:59.997Z,5.60
2018-07-03T19:14:27.576Z,7.90
2018-07-03T19:16:55.138Z,7.13
2018-07-03T19:19:22.697Z,8.17
2018-07-03T19:21:50.993Z,13.40
2018-07-03T19:24:18.557Z,6.40
2018-07-03T19:26:46.092Z,10.33
2018-07-03T19:29:13.645Z,5.90
2018-07-03T19:31:41.191Z,10.10
2018-07-03T19:34:09.516Z,11.73
2018-07-03T19:36:37.061Z,11.53
2018-07-03T19:39:04.709Z,10.70
2018-07-03T19:41:32.266Z,12.83
2018-07-03T19:43:59.917Z,8.40
2018-07-03T19:46:27.473Z,8.93
2018-07-03T19:48:55.797Z,8.33
2018-07-03T19:51:23.338Z,7.77
2018-07-03T19:53:50.910Z,8.50
2018-07-03T19:56:18.486Z,6.67
2018-07-03T19:58:46.041Z,7.77
2018-07-03T20:01:13.569Z,6.67
2018-07-03T20:03:41.121Z,6.83
2018-07-03T20:06:10.654Z,8.13
2018-07-03T20:08:38.238Z,8.00
2018-07-03T20:11:06.538Z,5.60
2018-07-03T20:13:35.045Z,7.30
2018-07-03T20:16:04.575Z,5.87
2018-07-03T20:18:34.064Z,7.03
2018-07-03T20:21:01.616Z,6.50
2018-07-03T20:23:29.169Z,9.97
2018-07-03T20:25:56.742Z,13.80
2018-07-03T20:28:24.298Z,6.33
2018-07-03T20:30:51.842Z,6.80
2018-07-03T20:33:19.369Z,6.30
2018-07-03T20:35:46.940Z,9.13
2018-07-03T20:38:14.502Z,11.40
2018-07-03T20:40:42.050Z,8.25
2018-07-03T20:43:09.617Z,8.87
2018-07-03T20:45:37.357Z,6.37
2018-07-03T20:48:04.917Z,7.87
2018-07-03T20:50:32.478Z,14.00
2018-07-03T20:53:00.038Z,13.37
2018-07-03T20:55:27.605Z,11.33
2018-07-03T20:57:55.141Z,12.93
2018-07-03T21:00:22.698Z,8.30
2018-07-03T21:02:50.232Z,10.90
2018-07-03T21:05:19.549Z,9.37
2018-07-03T21:07:47.086Z,10.27
2018-07-03T21:10:15.416Z,7.60
2018-07-03T21:12:42.941Z,8.77
2018-07-03T21:15:10.472Z,6.60
2018-07-03T21:17:39.970Z,7.83
2018-07-03T21:20:07.538Z,12.23
2018-07-03T21:22:35.072Z,9.00
2018-07-03T21:25:02.630Z,8.47
2018-07-03T21:27:30.193Z,7.87
2018-07-03T21:29:57.749Z,9.20
2018-07-03T21:32:26.242Z,12.60
2018-07-03T21:34:53.805Z,6.73
2018-07-03T21:37:21.354Z,11.87
2018-07-03T21:39:49.681Z,7.40
2018-07-03T21:42:17.222Z,10.53
2018-07-03T21:44:44.787Z,11.10
2018-07-03T21:47:12.328Z,7.77
2018-07-03T21:49:39.893Z,9.43
2018-07-03T21:52:07.434Z,10.17
2018-07-03T21:54:34.994Z,7.80
2018-07-03T21:57:02.567Z,9.03
2018-07-03T21:59:30.130Z,12.17
2018-07-03T22:01:57.670Z,8.73
2018-07-03T22:04:25.238Z,15.40
2018-07-03T22:06:53.846Z,9.20
2018-07-03T22:09:21.414Z,7.80
2018-07-03T22:11:49.005Z,9.07
2018-07-03T22:14:16.535Z,7.90
2018-07-03T22:16:44.105Z,9.93
2018-07-03T22:19:11.673Z,10.57
2018-07-03T22:21:39.223Z,9.10
2018-07-03T22:24:07.562Z,10.60
2018-07-03T22:26:35.141Z,7.20
2018-07-03T22:29:02.705Z,8.57
2018-07-03T22:31:30.241Z,10.80
2018-07-03T22:33:57.782Z,8.13
2018-07-03T22:36:25.342Z,8.80
2018-07-03T22:38:52.881Z,9.47
2018-07-03T22:41:20.461Z,19.07
2018-07-03T22:43:48.039Z,10.10
2018-07-03T22:46:15.577Z,11.17
2018-07-03T22:48:43.118Z,9.60
2018-07-03T22:51:10.682Z,10.27
2018-07-03T22:53:38.218Z,8.93
2018-07-03T22:56:05.787Z,9.40
2018-07-03T22:58:33.426Z,9.77
2018-07-03T23:01:00.913Z,9.40
2018-07-03T23:03:28.454Z,8.73
2018-07-03T23:05:56.031Z,12.60
2018-07-03T23:08:24.584Z,13.23
2018-07-03T23:10:53.159Z,15.60
2018-07-03T23:13:20.726Z,6.80
2018-07-03T23:15:48.382Z,15.40
2018-07-03T23:18:15.944Z,7.13
2018-07-03T23:20:43.511Z,13.17
2018-07-03T23:23:11.078Z,9.23
2018-07-03T23:25:38.614Z,13.13
2018-07-03T23:28:06.157Z,9.43
2018-07-03T23:30:33.720Z,7.73
2018-07-03T23:33:01.278Z,9.37
2018-07-03T23:35:28.847Z,8.33
2018-07-03T23:37:56.386Z,9.83
2018-07-03T23:40:23.972Z,12.87
2018-07-03T23:42:51.505Z,13.87
2018-07-03T23:45:19.106Z,10.27
2018-07-03T23:47:58.486Z,8.23
2018-07-03T23:50:38.026Z,9.63
2018-07-03T23:53:18.207Z,10.23
2018-07-03T23:55:58.668Z,12.80
2018-07-03T23:58:38.058Z,16.33
